Shaqra', Yemen
Current Conditions -  °F | °C
As of 8:00 AM on Monday 20 Oct 2014 (Local Time) from OYAA Reporting Station
Broken Clouds Broken Clouds  
Wind Chill: 86°   Ceiling: 1800
Heat Index: 86°   Visibility: 6mi
Dew Point: 57°   Wind: 15mph
Humidity: 37%   Direction: 110°ESE
Pressure: 29.91"   Gusts: NA
Location:  13.36°N, 45.69°E
Report Text: OYAA 200500Z 11013KT 9999 BKN018 30/14 Q1013
Loading
Personal Weather Stations






























Interactive Weather Map
Tropical Storm Tracking
New forecast layout! Learn more

10-Day Weather Forecast

Advertisements
Track Severe Weather on mobile